sensor_id;sensor_type;location;lat;lon;timestamp;pressure;altitude;pressure_sealevel;temperature;humidity
38616;BME280;24370;51.986;4.666;2023-01-29T00:01:58;103100.78;;;11.15;46.84
38616;BME280;24370;51.986;4.666;2023-01-29T00:04:24;103092.22;;;11.22;46.41
38616;BME280;24370;51.986;4.666;2023-01-29T00:06:49;103083.69;;;11.29;45.87
38616;BME280;24370;51.986;4.666;2023-01-29T00:09:15;103079.81;;;11.13;46.41
38616;BME280;24370;51.986;4.666;2023-01-29T00:11:41;103086.53;;;11.40;45.83
38616;BME280;24370;51.986;4.666;2023-01-29T00:14:06;103073.00;;;11.20;46.10
38616;BME280;24370;51.986;4.666;2023-01-29T00:16:32;103081.69;;;11.57;45.46
38616;BME280;24370;51.986;4.666;2023-01-29T00:18:57;103081.41;;;11.07;46.79
38616;BME280;24370;51.986;4.666;2023-01-29T00:21:23;103085.56;;;10.31;47.37
38616;BME280;24370;51.986;4.666;2023-01-29T00:23:49;103070.56;;;10.91;46.74
38616;BME280;24370;51.986;4.666;2023-01-29T00:26:15;103064.88;;;11.08;46.59
38616;BME280;24370;51.986;4.666;2023-01-29T00:28:41;103064.84;;;11.46;45.60
38616;BME280;24370;51.986;4.666;2023-01-29T00:31:13;103065.91;;;11.54;45.67
38616;BME280;24370;51.986;4.666;2023-01-29T00:33:38;103068.50;;;10.78;46.81
38616;BME280;24370;51.986;4.666;2023-01-29T00:36:06;103073.00;;;11.20;46.17
38616;BME280;24370;51.986;4.666;2023-01-29T00:38:32;103074.41;;;11.06;46.95
38616;BME280;24370;51.986;4.666;2023-01-29T00:41:05;103074.34;;;11.02;47.23
38616;BME280;24370;51.986;4.666;2023-01-29T00:43:49;103065.25;;;11.25;46.22
38616;BME280;24370;51.986;4.666;2023-01-29T00:46:33;103062.47;;;11.17;46.39
38616;BME280;24370;51.986;4.666;2023-01-29T00:48:58;103049.19;;;10.73;47.76
38616;BME280;24370;51.986;4.666;2023-01-29T00:51:24;103045.69;;;10.07;48.06
38616;BME280;24370;51.986;4.666;2023-01-29T00:53:52;103056.00;;;10.00;48.47
38616;BME280;24370;51.986;4.666;2023-01-29T00:56:25;103034.59;;;10.82;47.27
38616;BME280;24370;51.986;4.666;2023-01-29T00:58:50;103045.50;;;10.64;47.32
38616;BME280;24370;51.986;4.666;2023-01-29T01:01:16;103042.00;;;10.30;49.00
38616;BME280;24370;51.986;4.666;2023-01-29T01:03:41;103043.63;;;9.93;49.38
38616;BME280;24370;51.986;4.666;2023-01-29T01:06:09;103039.34;;;9.97;49.39
38616;BME280;24370;51.986;4.666;2023-01-29T01:08:34;103034.66;;;10.49;48.03
38616;BME280;24370;51.986;4.666;2023-01-29T01:11:18;103028.25;;;10.73;47.94
38616;BME280;24370;51.986;4.666;2023-01-29T01:13:44;103030.78;;;10.68;47.68
38616;BME280;24370;51.986;4.666;2023-01-29T01:16:12;103035.66;;;9.58;50.07
38616;BME280;24370;51.986;4.666;2023-01-29T01:18:38;103044.09;;;10.12;49.11
38616;BME280;24370;51.986;4.666;2023-01-29T01:21:03;103042.97;;;10.67;47.67
38616;BME280;24370;51.986;4.666;2023-01-29T01:23:29;103033.66;;;10.79;47.57
38616;BME280;24370;51.986;4.666;2023-01-29T01:25:54;103037.03;;;10.75;47.18
38616;BME280;24370;51.986;4.666;2023-01-29T01:28:20;103052.56;;;10.01;48.69
38616;BME280;24370;51.986;4.666;2023-01-29T01:30:45;103044.06;;;10.76;48.25
38616;BME280;24370;51.986;4.666;2023-01-29T01:33:11;103057.50;;;10.24;47.99
38616;BME280;24370;51.986;4.666;2023-01-29T01:35:38;103052.19;;;10.88;48.01
38616;BME280;24370;51.986;4.666;2023-01-29T01:38:03;103064.31;;;10.84;47.48
38616;BME280;24370;51.986;4.666;2023-01-29T01:40:29;103054.16;;;10.98;47.49
38616;BME280;24370;51.986;4.666;2023-01-29T01:42:56;103062.06;;;10.63;47.94
38616;BME280;24370;51.986;4.666;2023-01-29T01:45:30;103061.59;;;10.80;48.22
38616;BME280;24370;51.986;4.666;2023-01-29T01:48:15;103060.34;;;11.00;47.64
38616;BME280;24370;51.986;4.666;2023-01-29T01:50:45;103067.19;;;10.28;48.44
38616;BME280;24370;51.986;4.666;2023-01-29T01:53:17;103068.84;;;10.57;47.96
38616;BME280;24370;51.986;4.666;2023-01-29T01:55:50;103066.97;;;10.86;48.09
38616;BME280;24370;51.986;4.666;2023-01-29T01:58:21;103067.28;;;10.31;48.47
38616;BME280;24370;51.986;4.666;2023-01-29T02:00:48;103054.84;;;10.55;48.06
38616;BME280;24370;51.986;4.666;2023-01-29T02:03:14;103053.22;;;10.26;48.28
38616;BME280;24370;51.986;4.666;2023-01-29T02:06:00;103050.72;;;10.64;48.16
38616;BME280;24370;51.986;4.666;2023-01-29T02:11:43;103050.09;;;10.40;48.59
38616;BME280;24370;51.986;4.666;2023-01-29T02:14:09;103053.19;;;9.62;50.59
38616;BME280;24370;51.986;4.666;2023-01-29T02:16:36;103041.75;;;10.21;49.44
38616;BME280;24370;51.986;4.666;2023-01-29T02:19:03;103026.22;;;10.97;46.54
38616;BME280;24370;51.986;4.666;2023-01-29T02:21:58;103036.50;;;10.53;48.51
38616;BME280;24370;51.986;4.666;2023-01-29T02:27:11;103036.34;;;10.82;47.95
38616;BME280;24370;51.986;4.666;2023-01-29T02:32:19;103037.66;;;11.01;47.84
38616;BME280;24370;51.986;4.666;2023-01-29T02:35:04;103043.94;;;11.08;47.61
38616;BME280;24370;51.986;4.666;2023-01-29T02:43:11;103044.09;;;10.44;48.79
38616;BME280;24370;51.986;4.666;2023-01-29T02:45:46;103037.91;;;10.39;48.89
38616;BME280;24370;51.986;4.666;2023-01-29T02:48:19;103043.84;;;10.68;47.87
38616;BME280;24370;51.986;4.666;2023-01-29T02:50:57;103044.53;;;10.59;48.59
38616;BME280;24370;51.986;4.666;2023-01-29T02:53:33;103038.03;;;10.80;47.90
38616;BME280;24370;51.986;4.666;2023-01-29T02:56:15;103039.59;;;11.10;47.35
38616;BME280;24370;51.986;4.666;2023-01-29T02:58:56;103031.63;;;11.43;46.00
38616;BME280;24370;51.986;4.666;2023-01-29T03:03:52;103039.97;;;11.25;46.25
38616;BME280;24370;51.986;4.666;2023-01-29T03:06:34;103031.44;;;10.96;47.11
38616;BME280;24370;51.986;4.666;2023-01-29T03:09:14;103034.69;;;10.85;47.71
38616;BME280;24370;51.986;4.666;2023-01-29T03:11:47;103034.09;;;11.37;46.42
38616;BME280;24370;51.986;4.666;2023-01-29T03:14:21;103025.66;;;11.11;46.59
38616;BME280;24370;51.986;4.666;2023-01-29T03:16:51;103028.28;;;11.11;46.47
38616;BME280;24370;51.986;4.666;2023-01-29T03:19:19;103020.81;;;10.88;47.46
38616;BME280;24370;51.986;4.666;2023-01-29T03:21:55;103022.38;;;10.46;48.47
38616;BME280;24370;51.986;4.666;2023-01-29T03:27:25;103025.66;;;11.11;47.01
38616;BME280;24370;51.986;4.666;2023-01-29T03:30:11;103023.03;;;11.50;46.11
38616;BME280;24370;51.986;4.666;2023-01-29T03:32:58;103020.38;;;10.71;47.84
38616;BME280;24370;51.986;4.666;2023-01-29T03:35:27;103010.72;;;10.68;47.58
38616;BME280;24370;51.986;4.666;2023-01-29T03:38:02;103006.97;;;10.94;47.37
38616;BME280;24370;51.986;4.666;2023-01-29T03:40:51;103002.72;;;10.61;48.63
38616;BME280;24370;51.986;4.666;2023-01-29T03:43:46;102993.69;;;10.49;48.92
38616;BME280;24370;51.986;4.666;2023-01-29T03:46:41;103011.22;;;10.20;49.66
38616;BME280;24370;51.986;4.666;2023-01-29T03:49:20;103011.94;;;10.46;49.06
38616;BME280;24370;51.986;4.666;2023-01-29T03:57:30;103002.69;;;10.27;49.90
38616;BME280;24370;51.986;4.666;2023-01-29T04:02:30;102996.47;;;10.22;49.44
38616;BME280;24370;51.986;4.666;2023-01-29T04:05:03;102999.50;;;9.74;50.71
38616;BME280;24370;51.986;4.666;2023-01-29T04:07:29;102985.47;;;10.00;50.14
38616;BME280;24370;51.986;4.666;2023-01-29T04:10:10;102982.31;;;9.82;50.82
38616;BME280;24370;51.986;4.666;2023-01-29T04:12:42;102988.66;;;9.28;52.01
38616;BME280;24370;51.986;4.666;2023-01-29T04:15:12;102977.84;;;9.46;51.74
38616;BME280;24370;51.986;4.666;2023-01-29T04:17:44;102984.94;;;9.50;51.51
38616;BME280;24370;51.986;4.666;2023-01-29T04:20:13;102984.13;;;9.53;50.61
38616;BME280;24370;51.986;4.666;2023-01-29T04:22:39;102990.22;;;9.83;50.78
38616;BME280;24370;51.986;4.666;2023-01-29T04:25:08;102971.84;;;10.46;49.27
38616;BME280;24370;51.986;4.666;2023-01-29T04:28:06;102976.59;;;9.31;51.95
38616;BME280;24370;51.986;4.666;2023-01-29T04:31:01;102977.38;;;9.59;52.07
38616;BME280;24370;51.986;4.666;2023-01-29T04:36:31;102959.50;;;10.40;50.12
38616;BME280;24370;51.986;4.666;2023-01-29T04:39:16;102966.16;;;9.63;51.97
38616;BME280;24370;51.986;4.666;2023-01-29T04:41:52;102961.50;;;10.89;48.46
38616;BME280;24370;51.986;4.666;2023-01-29T04:44:25;102951.06;;;10.90;47.68
38616;BME280;24370;51.986;4.666;2023-01-29T04:47:04;102949.44;;;10.95;47.77
38616;BME280;24370;51.986;4.666;2023-01-29T04:50:01;102945.28;;;10.67;48.05
38616;BME280;24370;51.986;4.666;2023-01-29T04:52:33;102935.31;;;10.50;48.80
38616;BME280;24370;51.986;4.666;2023-01-29T04:57:49;102932.38;;;9.70;50.76
38616;BME280;24370;51.986;4.666;2023-01-29T05:00:20;102941.34;;;10.13;49.34
38616;BME280;24370;51.986;4.666;2023-01-29T05:02:48;102926.91;;;10.62;47.83
38616;BME280;24370;51.986;4.666;2023-01-29T05:05:15;102929.94;;;9.76;49.69
38616;BME280;24370;51.986;4.666;2023-01-29T05:07:45;102932.22;;;9.63;50.56
38616;BME280;24370;51.986;4.666;2023-01-29T05:10:11;102931.47;;;9.67;51.13
38616;BME280;24370;51.986;4.666;2023-01-29T05:12:39;102931.88;;;8.90;51.72
38616;BME280;24370;51.986;4.666;2023-01-29T05:15:13;102928.94;;;9.39;51.28
38616;BME280;24370;51.986;4.666;2023-01-29T05:17:41;102920.19;;;9.68;50.63
38616;BME280;24370;51.986;4.666;2023-01-29T05:20:07;102917.69;;;10.08;49.93
38616;BME280;24370;51.986;4.666;2023-01-29T05:22:36;102936.25;;;9.22;52.12
38616;BME280;24370;51.986;4.666;2023-01-29T05:25:19;102931.34;;;9.32;52.04
38616;BME280;24370;51.986;4.666;2023-01-29T05:27:46;102926.91;;;9.92;50.12
38616;BME280;24370;51.986;4.666;2023-01-29T05:30:29;102930.75;;;9.73;50.52
38616;BME280;24370;51.986;4.666;2023-01-29T05:32:55;102919.16;;;10.30;49.02
38616;BME280;24370;51.986;4.666;2023-01-29T05:35:20;102921.81;;;9.98;49.40
38616;BME280;24370;51.986;4.666;2023-01-29T05:37:46;102913.56;;;9.81;49.71
38616;BME280;24370;51.986;4.666;2023-01-29T05:40:11;102907.03;;;9.65;50.52
38616;BME280;24370;51.986;4.666;2023-01-29T05:42:37;102918.50;;;9.08;51.66
38616;BME280;24370;51.986;4.666;2023-01-29T05:45:03;102919.41;;;9.41;50.07
38616;BME280;24370;51.986;4.666;2023-01-29T05:47:28;102923.56;;;9.04;51.64
38616;BME280;24370;51.986;4.666;2023-01-29T05:49:54;102917.56;;;9.68;49.58
38616;BME280;24370;51.986;4.666;2023-01-29T05:52:19;102916.28;;;10.56;48.20
38616;BME280;24370;51.986;4.666;2023-01-29T05:54:44;102910.63;;;10.38;48.35
38616;BME280;24370;51.986;4.666;2023-01-29T05:57:10;102906.84;;;10.26;48.30
38616;BME280;24370;51.986;4.666;2023-01-29T05:59:35;102912.72;;;9.82;48.58
38616;BME280;24370;51.986;4.666;2023-01-29T06:02:01;102918.13;;;9.90;48.93
38616;BME280;24370;51.986;4.666;2023-01-29T06:04:26;102909.19;;;9.82;49.16
38616;BME280;24370;51.986;4.666;2023-01-29T06:06:51;102906.38;;;10.08;49.44
38616;BME280;24370;51.986;4.666;2023-01-29T06:09:20;102910.50;;;9.98;49.42
38616;BME280;24370;51.986;4.666;2023-01-29T06:11:45;102916.78;;;9.41;50.64
38616;BME280;24370;51.986;4.666;2023-01-29T06:14:11;102921.97;;;9.39;51.46
38616;BME280;24370;51.986;4.666;2023-01-29T06:16:36;102919.31;;;9.38;51.02
38616;BME280;24370;51.986;4.666;2023-01-29T06:19:02;102903.56;;;9.66;50.57
38616;BME280;24370;51.986;4.666;2023-01-29T06:21:27;102896.09;;;10.14;49.47
38616;BME280;24370;51.986;4.666;2023-01-29T06:23:52;102898.28;;;9.63;51.21
38616;BME280;24370;51.986;4.666;2023-01-29T06:26:18;102893.94;;;9.64;50.76
38616;BME280;24370;51.986;4.666;2023-01-29T06:28:43;102889.34;;;9.55;50.20
38616;BME280;24370;51.986;4.666;2023-01-29T06:31:12;102895.84;;;10.05;50.09
38616;BME280;24370;51.986;4.666;2023-01-29T06:33:37;102889.22;;;10.19;49.06
38616;BME280;24370;51.986;4.666;2023-01-29T06:36:03;102886.44;;;9.78;50.74
38616;BME280;24370;51.986;4.666;2023-01-29T06:38:30;102881.91;;;9.71;50.80
38616;BME280;24370;51.986;4.666;2023-01-29T06:40:56;102878.97;;;9.58;51.12
38616;BME280;24370;51.986;4.666;2023-01-29T06:43:22;102879.19;;;8.73;53.21
38616;BME280;24370;51.986;4.666;2023-01-29T06:45:55;102867.97;;;9.68;51.21
38616;BME280;24370;51.986;4.666;2023-01-29T06:48:22;102883.22;;;9.55;50.87
38616;BME280;24370;51.986;4.666;2023-01-29T06:50:48;102888.94;;;9.40;51.14
38616;BME280;24370;51.986;4.666;2023-01-29T06:53:14;102891.81;;;8.88;52.37
38616;BME280;24370;51.986;4.666;2023-01-29T06:55:41;102892.63;;;8.87;52.79
38616;BME280;24370;51.986;4.666;2023-01-29T06:58:08;102880.75;;;9.59;50.64
38616;BME280;24370;51.986;4.666;2023-01-29T07:00:34;102883.34;;;8.97;52.80
38616;BME280;24370;51.986;4.666;2023-01-29T07:03:00;102887.78;;;9.30;51.90
38616;BME280;24370;51.986;4.666;2023-01-29T07:05:26;102879.44;;;9.43;51.33
38616;BME280;24370;51.986;4.666;2023-01-29T07:07:51;102872.63;;;9.48;50.38
38616;BME280;24370;51.986;4.666;2023-01-29T07:10:17;102876.84;;;10.10;49.85
38616;BME280;24370;51.986;4.666;2023-01-29T07:12:42;102875.84;;;10.07;49.25
38616;BME280;24370;51.986;4.666;2023-01-29T07:15:08;102889.88;;;9.43;50.26
38616;BME280;24370;51.986;4.666;2023-01-29T07:17:33;102879.94;;;10.30;49.43
38616;BME280;24370;51.986;4.666;2023-01-29T07:19:59;102875.09;;;10.11;49.07
38616;BME280;24370;51.986;4.666;2023-01-29T07:22:24;102871.88;;;10.21;49.05
38616;BME280;24370;51.986;4.666;2023-01-29T07:24:50;102869.16;;;9.48;50.39
38616;BME280;24370;51.986;4.666;2023-01-29T07:27:15;102880.09;;;8.74;52.56
38616;BME280;24370;51.986;4.666;2023-01-29T07:29:40;102878.72;;;8.58;53.09
38616;BME280;24370;51.986;4.666;2023-01-29T07:32:06;102867.50;;;9.51;51.70
38616;BME280;24370;51.986;4.666;2023-01-29T07:34:32;102880.81;;;9.29;51.00
38616;BME280;24370;51.986;4.666;2023-01-29T07:36:57;102878.06;;;9.24;51.71
38616;BME280;24370;51.986;4.666;2023-01-29T07:39:23;102884.72;;;8.55;53.56
38616;BME280;24370;51.986;4.666;2023-01-29T07:41:48;102882.03;;;9.42;51.63
38616;BME280;24370;51.986;4.666;2023-01-29T07:44:14;102879.94;;;9.60;50.75
38616;BME280;24370;51.986;4.666;2023-01-29T07:46:39;102894.34;;;9.15;51.58
38616;BME280;24370;51.986;4.666;2023-01-29T07:49:04;102878.69;;;8.85;52.67
38616;BME280;24370;51.986;4.666;2023-01-29T07:51:30;102883.19;;;9.21;51.87
38616;BME280;24370;51.986;4.666;2023-01-29T07:53:55;102868.66;;;9.31;52.39
38616;BME280;24370;51.986;4.666;2023-01-29T07:56:21;102875.38;;;9.21;51.65
38616;BME280;24370;51.986;4.666;2023-01-29T07:58:46;102875.75;;;9.05;52.21
38616;BME280;24370;51.986;4.666;2023-01-29T08:01:11;102865.31;;;9.35;51.43
38616;BME280;24370;51.986;4.666;2023-01-29T08:03:37;102860.25;;;9.75;50.16
38616;BME280;24370;51.986;4.666;2023-01-29T08:06:03;102862.41;;;9.24;51.72
38616;BME280;24370;51.986;4.666;2023-01-29T08:08:29;102867.50;;;8.60;53.14
38616;BME280;24370;51.986;4.666;2023-01-29T08:10:54;102873.19;;;8.21;54.67
38616;BME280;24370;51.986;4.666;2023-01-29T08:13:20;102867.03;;;9.34;52.06
38616;BME280;24370;51.986;4.666;2023-01-29T08:15:45;102862.50;;;8.97;53.41
38616;BME280;24370;51.986;4.666;2023-01-29T08:18:11;102859.00;;;9.27;52.20
38616;BME280;24370;51.986;4.666;2023-01-29T08:20:37;102853.63;;;8.90;52.98
38616;BME280;24370;51.986;4.666;2023-01-29T08:23:05;102847.31;;;8.82;52.54
38616;BME280;24370;51.986;4.666;2023-01-29T08:25:31;102850.28;;;8.65;53.75
38616;BME280;24370;51.986;4.666;2023-01-29T08:27:57;102849.72;;;8.47;53.59
38616;BME280;24370;51.986;4.666;2023-01-29T08:30:29;102843.13;;;8.89;53.25
38616;BME280;24370;51.986;4.666;2023-01-29T08:32:55;102843.97;;;8.57;54.17
38616;BME280;24370;51.986;4.666;2023-01-29T08:35:20;102840.38;;;9.14;53.00
38616;BME280;24370;51.986;4.666;2023-01-29T08:38:14;102844.59;;;8.50;54.44
38616;BME280;24370;51.986;4.666;2023-01-29T08:40:38;102842.31;;;8.61;53.94
38616;BME280;24370;51.986;4.666;2023-01-29T08:43:06;102832.78;;;9.22;52.42
38616;BME280;24370;51.986;4.666;2023-01-29T08:45:33;102823.94;;;9.17;52.80
38616;BME280;24370;51.986;4.666;2023-01-29T08:47:59;102829.06;;;8.82;53.95
38616;BME280;24370;51.986;4.666;2023-01-29T08:50:24;102828.00;;;9.07;53.03
38616;BME280;24370;51.986;4.666;2023-01-29T08:52:49;102838.97;;;8.10;54.71
38616;BME280;24370;51.986;4.666;2023-01-29T08:55:15;102825.78;;;9.21;52.79
38616;BME280;24370;51.986;4.666;2023-01-29T08:57:40;102821.00;;;10.07;50.28
38616;BME280;24370;51.986;4.666;2023-01-29T09:00:07;102819.31;;;9.39;52.38
38616;BME280;24370;51.986;4.666;2023-01-29T09:02:39;102829.88;;;8.81;54.15
38616;BME280;24370;51.986;4.666;2023-01-29T09:05:04;102818.03;;;9.24;53.02
38616;BME280;24370;51.986;4.666;2023-01-29T09:07:30;102822.03;;;9.43;51.96
38616;BME280;24370;51.986;4.666;2023-01-29T09:09:55;102817.69;;;8.80;53.98
38616;BME280;24370;51.986;4.666;2023-01-29T09:12:21;102815.84;;;9.08;53.70
38616;BME280;24370;51.986;4.666;2023-01-29T09:14:46;102820.25;;;8.78;54.22
38616;BME280;24370;51.986;4.666;2023-01-29T09:17:12;102822.59;;;9.01;54.09
38616;BME280;24370;51.986;4.666;2023-01-29T09:19:37;102819.22;;;9.36;53.50
38616;BME280;24370;51.986;4.666;2023-01-29T09:22:02;102818.22;;;9.30;52.56
38616;BME280;24370;51.986;4.666;2023-01-29T09:24:28;102814.84;;;8.72;53.66
38616;BME280;24370;51.986;4.666;2023-01-29T09:26:54;102815.63;;;9.32;53.61
38616;BME280;24370;51.986;4.666;2023-01-29T09:29:19;102812.69;;;9.53;53.04
38616;BME280;24370;51.986;4.666;2023-01-29T09:31:44;102816.63;;;9.71;52.17
38616;BME280;24370;51.986;4.666;2023-01-29T09:34:10;102814.66;;;9.60;52.75
38616;BME280;24370;51.986;4.666;2023-01-29T09:36:35;102811.38;;;9.69;52.89
38616;BME280;24370;51.986;4.666;2023-01-29T09:39:00;102813.56;;;9.87;51.70
38616;BME280;24370;51.986;4.666;2023-01-29T09:43:58;102809.78;;;9.09;54.90
38616;BME280;24370;51.986;4.666;2023-01-29T09:46:37;102817.13;;;9.56;53.75
38616;BME280;24370;51.986;4.666;2023-01-29T09:49:29;102812.03;;;9.60;53.12
38616;BME280;24370;51.986;4.666;2023-01-29T09:52:10;102806.81;;;8.95;54.97
38616;BME280;24370;51.986;4.666;2023-01-29T09:57:40;102820.72;;;8.65;55.45
38616;BME280;24370;51.986;4.666;2023-01-29T10:00:22;102798.53;;;9.10;54.39
38616;BME280;24370;51.986;4.666;2023-01-29T10:08:35;102795.22;;;10.22;52.00
38616;BME280;24370;51.986;4.666;2023-01-29T10:11:08;102800.00;;;8.70;55.07
38616;BME280;24370;51.986;4.666;2023-01-29T10:13:59;102797.66;;;9.78;52.68
38616;BME280;24370;51.986;4.666;2023-01-29T10:19:16;102792.28;;;10.46;51.03
38616;BME280;24370;51.986;4.666;2023-01-29T10:24:34;102776.31;;;10.34;51.62
38616;BME280;24370;51.986;4.666;2023-01-29T10:27:01;102783.91;;;9.85;51.93
38616;BME280;24370;51.986;4.666;2023-01-29T10:29:28;102787.47;;;9.20;53.95
38616;BME280;24370;51.986;4.666;2023-01-29T10:31:57;102778.75;;;9.88;52.62
38616;BME280;24370;51.986;4.666;2023-01-29T10:34:32;102774.97;;;10.13;52.82
38616;BME280;24370;51.986;4.666;2023-01-29T10:37:11;102775.41;;;10.72;50.27
38616;BME280;24370;51.986;4.666;2023-01-29T10:39:39;102777.63;;;9.42;52.12
38616;BME280;24370;51.986;4.666;2023-01-29T10:44:38;102778.06;;;9.25;53.22
38616;BME280;24370;51.986;4.666;2023-01-29T10:47:28;102771.69;;;9.84;52.90
38616;BME280;24370;51.986;4.666;2023-01-29T10:58:40;102737.59;;;10.16;51.85
38616;BME280;24370;51.986;4.666;2023-01-29T11:01:09;102734.66;;;10.02;52.52
38616;BME280;24370;51.986;4.666;2023-01-29T11:03:35;102730.44;;;9.69;53.11
38616;BME280;24370;51.986;4.666;2023-01-29T11:06:23;102732.84;;;9.98;54.04
38616;BME280;24370;51.986;4.666;2023-01-29T11:11:42;102724.81;;;9.90;52.90
38616;BME280;24370;51.986;4.666;2023-01-29T11:14:16;102725.38;;;10.16;52.94
38616;BME280;24370;51.986;4.666;2023-01-29T11:16:46;102723.19;;;9.95;52.52
38616;BME280;24370;51.986;4.666;2023-01-29T11:19:12;102721.22;;;9.48;53.02
38616;BME280;24370;51.986;4.666;2023-01-29T11:24:19;102720.34;;;10.24;52.25
38616;BME280;24370;51.986;4.666;2023-01-29T11:26:47;102715.56;;;10.43;51.55
38616;BME280;24370;51.986;4.666;2023-01-29T11:29:44;102715.25;;;10.30;52.33
38616;BME280;24370;51.986;4.666;2023-01-29T11:37:35;102705.63;;;9.88;53.82
38616;BME280;24370;51.986;4.666;2023-01-29T11:40:32;102709.28;;;9.96;53.80
38616;BME280;24370;51.986;4.666;2023-01-29T11:43:31;102703.50;;;9.72;53.95
38616;BME280;24370;51.986;4.666;2023-01-29T11:46:01;102697.06;;;9.57;55.29
38616;BME280;24370;51.986;4.666;2023-01-29T11:48:45;102699.47;;;9.48;55.36
38616;BME280;24370;51.986;4.666;2023-01-29T11:51:24;102692.91;;;9.65;54.37
38616;BME280;24370;51.986;4.666;2023-01-29T11:53:52;102692.69;;;9.94;53.80
38616;BME280;24370;51.986;4.666;2023-01-29T11:56:34;102683.56;;;10.15;54.16
38616;BME280;24370;51.986;4.666;2023-01-29T11:59:04;102681.56;;;9.63;53.39
38616;BME280;24370;51.986;4.666;2023-01-29T12:01:38;102676.13;;;9.92;53.99
38616;BME280;24370;51.986;4.666;2023-01-29T12:04:18;102665.13;;;10.50;52.31
38616;BME280;24370;51.986;4.666;2023-01-29T12:06:47;102661.34;;;10.80;52.25
38616;BME280;24370;51.986;4.666;2023-01-29T12:09:18;102658.59;;;10.74;51.52
38616;BME280;24370;51.986;4.666;2023-01-29T12:11:44;102668.38;;;9.98;53.26
38616;BME280;24370;51.986;4.666;2023-01-29T12:14:29;102651.41;;;10.62;52.62
38616;BME280;24370;51.986;4.666;2023-01-29T12:17:05;102646.13;;;10.59;52.63
38616;BME280;24370;51.986;4.666;2023-01-29T12:22:31;102644.28;;;10.53;53.09
38616;BME280;24370;51.986;4.666;2023-01-29T12:25:21;102629.25;;;10.90;51.53
38616;BME280;24370;51.986;4.666;2023-01-29T12:27:52;102618.81;;;10.93;50.96
38616;BME280;24370;51.986;4.666;2023-01-29T12:30:27;102603.75;;;10.32;52.62
38616;BME280;24370;51.986;4.666;2023-01-29T12:36:04;102606.88;;;10.57;52.25
38616;BME280;24370;51.986;4.666;2023-01-29T12:38:33;102594.38;;;10.90;51.65
38616;BME280;24370;51.986;4.666;2023-01-29T12:41:24;102590.22;;;10.52;52.88
38616;BME280;24370;51.986;4.666;2023-01-29T12:43:57;102573.97;;;10.24;53.16
38616;BME280;24370;51.986;4.666;2023-01-29T12:46:27;102570.38;;;9.75;54.71
38616;BME280;24370;51.986;4.666;2023-01-29T12:48:56;102558.56;;;10.87;51.60
38616;BME280;24370;51.986;4.666;2023-01-29T12:51:37;102553.16;;;11.34;51.32
38616;BME280;24370;51.986;4.666;2023-01-29T12:54:13;102549.06;;;10.92;51.92
38616;BME280;24370;51.986;4.666;2023-01-29T12:56:46;102550.41;;;10.21;52.98
38616;BME280;24370;51.986;4.666;2023-01-29T13:01:56;102541.44;;;10.54;53.91
38616;BME280;24370;51.986;4.666;2023-01-29T13:04:30;102534.63;;;10.62;52.47
38616;BME280;24370;51.986;4.666;2023-01-29T13:07:09;102524.41;;;10.78;52.35
38616;BME280;24370;51.986;4.666;2023-01-29T13:09:38;102523.22;;;10.10;54.06
38616;BME280;24370;51.986;4.666;2023-01-29T13:12:11;102520.81;;;10.22;53.24
38616;BME280;24370;51.986;4.666;2023-01-29T13:17:36;102499.56;;;10.51;53.61
38616;BME280;24370;51.986;4.666;2023-01-29T13:20:28;102492.41;;;10.41;52.96
38616;BME280;24370;51.986;4.666;2023-01-29T13:23:05;102485.78;;;10.61;51.76
38616;BME280;24370;51.986;4.666;2023-01-29T13:25:37;102479.31;;;10.94;51.57
38616;BME280;24370;51.986;4.666;2023-01-29T13:28:02;102468.47;;;11.29;50.56
38616;BME280;24370;51.986;4.666;2023-01-29T13:30:32;102480.66;;;10.67;52.21
38616;BME280;24370;51.986;4.666;2023-01-29T13:33:00;102470.25;;;10.71;51.79
38616;BME280;24370;51.986;4.666;2023-01-29T13:35:39;102468.28;;;10.57;52.21
38616;BME280;24370;51.986;4.666;2023-01-29T13:38:19;102459.38;;;11.02;51.83
38616;BME280;24370;51.986;4.666;2023-01-29T13:40:50;102464.78;;;10.55;52.43
38616;BME280;24370;51.986;4.666;2023-01-29T13:43:20;102460.22;;;11.01;52.49
38616;BME280;24370;51.986;4.666;2023-01-29T13:45:48;102442.19;;;11.22;50.36
38616;BME280;24370;51.986;4.666;2023-01-29T13:48:29;102441.53;;;10.75;51.97
38616;BME280;24370;51.986;4.666;2023-01-29T13:51:00;102443.13;;;11.28;50.95
38616;BME280;24370;51.986;4.666;2023-01-29T13:53:29;102450.81;;;10.55;53.61
38616;BME280;24370;51.986;4.666;2023-01-29T13:58:56;102444.25;;;9.79;54.71
38616;BME280;24370;51.986;4.666;2023-01-29T14:06:52;102427.34;;;11.22;51.67
38616;BME280;24370;51.986;4.666;2023-01-29T14:17:17;102422.41;;;11.47;50.80
38616;BME280;24370;51.986;4.666;2023-01-29T14:19:48;102411.13;;;10.82;52.54
38616;BME280;24370;51.986;4.666;2023-01-29T14:22:22;102422.75;;;10.43;53.87
38616;BME280;24370;51.986;4.666;2023-01-29T14:24:57;102412.03;;;10.84;52.92
38616;BME280;24370;51.986;4.666;2023-01-29T14:27:24;102410.97;;;10.19;53.92
38616;BME280;24370;51.986;4.666;2023-01-29T14:29:50;102409.06;;;10.59;54.17
38616;BME280;24370;51.986;4.666;2023-01-29T14:32:22;102411.84;;;9.69;56.53
38616;BME280;24370;51.986;4.666;2023-01-29T14:34:59;102413.72;;;10.25;55.06
38616;BME280;24370;51.986;4.666;2023-01-29T14:37:31;102399.31;;;10.49;54.97
38616;BME280;24370;51.986;4.666;2023-01-29T14:42:38;102415.59;;;9.38;57.58
38616;BME280;24370;51.986;4.666;2023-01-29T14:47:57;102395.81;;;10.47;55.68
38616;BME280;24370;51.986;4.666;2023-01-29T14:55:57;102398.50;;;10.01;56.10
38616;BME280;24370;51.986;4.666;2023-01-29T14:58:43;102412.94;;;9.82;58.42
38616;BME280;24370;51.986;4.666;2023-01-29T15:01:25;102387.59;;;10.25;56.49
38616;BME280;24370;51.986;4.666;2023-01-29T15:04:01;102396.31;;;10.27;56.58
38616;BME280;24370;51.986;4.666;2023-01-29T15:07:41;102392.34;;;9.97;57.61